Akron, Indiana
Current Conditions -  °F | °C
As of 6:55 AM on Saturday 25 Oct 2014 (Local Time) from KRCR Reporting Station
Haze Haze  
Wind Chill: 54°   Ceiling: Unl
Heat Index: 54°   Visibility: 5mi
Dew Point: 52°   Wind: 3mph
Humidity: 94%   Direction: 240°WSW
Pressure: 29.93"   Gusts: NA
Location:  41.04°N, 86.03°W
Report Text: KRCR 251055Z AUTO 24003KT 5SM BR SCT032 12/11 A2993 RMK AO2
Loading
Personal Weather Stations






























Interactive Weather Map
Tropical Storm Tracking
New forecast layout! Learn more

10-Day Weather Forecast

Advertisements
Track Severe Weather on mobile